Time;durP1;ratioP1;P1;durP2;ratioP2;P2;SDS_P1;SDS_P2;PMS_P1;PMS_P2;Temp;Humidity;BMP_temperature;BMP_pressure;BME280_temperature;BME280_humidity;BME280_pressure;Samples;Min_cycle;Max_cycle;Signal;HPM_P1;HPM_P2
2022/11/03 00:02:16;;;;;;;43.63;15.03;;;;;;;;;;1697462;84;21060;-93
2022/11/03 00:04:42;;;;;;;38.35;15.65;;;;;;;;;;1700718;83;21042;-89
2022/11/03 00:07:08;;;;;;;34.40;14.43;;;;;;;;;;1700623;83;21056;-89
2022/11/03 00:09:33;;;;;;;35.10;15.13;;;;;;;;;;1700874;83;22006;-89
2022/11/03 00:12:00;;;;;;;35.15;13.95;;;;;;;;;;1700623;84;20936;-89
2022/11/03 00:14:26;;;;;;;36.85;14.20;;;;;;;;;;1700555;83;21098;-89
2022/11/03 00:16:52;;;;;;;40.30;15.23;;;;;;;;;;1700735;83;21043;-89
2022/11/03 00:19:18;;;;;;;40.60;16.77;;;;;;;;;;1700685;83;21052;-89
2022/11/03 00:21:44;;;;;;;41.63;16.40;;;;;;;;;;1700475;83;20888;-89
2022/11/03 00:24:10;;;;;;;38.35;16.10;;;;;;;;;;1700919;83;21074;-89
2022/11/03 00:26:36;;;;;;;37.85;15.85;;;;;;;;;;1700841;83;21081;-86
2022/11/03 00:29:08;;;;;;;44.85;18.00;;;;;;;;;;1701182;83;21680;-89
2022/11/03 00:31:36;;;;;;;64.27;16.70;;;;;;;;;;1640934;86;21088;-88
2022/11/03 00:34:02;;;;;;;104.55;17.27;;;;;;;;;;1640261;86;21039;-89
2022/11/03 00:36:34;;;;;;;99.62;15.98;;;;;;;;;;1639991;86;21116;-88
2022/11/03 00:39:00;;;;;;;87.65;16.35;;;;;;;;;;1640542;86;21836;-88
2022/11/03 00:41:26;;;;;;;46.00;14.58;;;;;;;;;;1640501;86;20938;-91
2022/11/03 00:43:52;;;;;;;34.03;13.88;;;;;;;;;;1640372;86;21002;-88
2022/11/03 00:46:19;;;;;;;42.80;16.02;;;;;;;;;;1640617;87;21044;-87
2022/11/03 00:48:45;;;;;;;37.98;15.05;;;;;;;;;;1640540;86;21069;-88
2022/11/03 00:51:28;;;;;;;39.00;15.85;;;;;;;;;;1640790;86;21175;-87
2022/11/03 00:53:56;;;;;;;132.03;18.80;;;;;;;;;;1640291;86;21084;-87
2022/11/03 00:56:31;;;;;;;36.70;15.35;;;;;;;;;;1640665;86;21080;-87
2022/11/03 00:58:58;;;;;;;38.78;14.95;;;;;;;;;;1640574;86;21114;-88
2022/11/03 01:06:53;;;;;;;52.98;16.25;;;;;;;;;;1569863;91;21557;-87
2022/11/03 01:09:22;;;;;;;131.03;17.40;;;;;;;;;;1570555;91;21136;-87
2022/11/03 01:12:00;;;;;;;78.17;17.40;;;;;;;;;;1569833;91;22046;-87
2022/11/03 01:14:29;;;;;;;66.37;17.30;;;;;;;;;;1570268;91;21089;-87
2022/11/03 01:16:55;;;;;;;43.50;16.23;;;;;;;;;;1546388;92;22146;-92
2022/11/03 01:19:24;;;;;;;64.72;17.52;;;;;;;;;;1546160;92;21025;-86
2022/11/03 01:21:51;;;;;;;70.25;18.27;;;;;;;;;;1550666;92;21270;-86
2022/11/03 01:24:17;;;;;;;53.15;16.80;;;;;;;;;;1555830;92;21097;-86
2022/11/03 01:26:42;;;;;;;60.20;17.85;;;;;;;;;;1555668;92;20930;-86
2022/11/03 01:29:08;;;;;;;49.48;18.25;;;;;;;;;;1560563;89;21873;-86
2022/11/03 01:31:34;;;;;;;49.38;17.85;;;;;;;;;;1562113;89;20946;-86
2022/11/03 01:34:00;;;;;;;42.62;17.20;;;;;;;;;;1562225;90;20940;-86
2022/11/03 01:36:25;;;;;;;51.25;17.65;;;;;;;;;;1562036;89;20882;-91
2022/11/03 01:38:53;;;;;;;45.48;17.85;;;;;;;;;;1561901;89;21035;-86
2022/11/03 01:41:22;;;;;;;46.15;17.30;;;;;;;;;;1562019;89;21166;-85
2022/11/03 01:43:53;;;;;;;122.60;20.75;;;;;;;;;;1561639;89;21119;-84
2022/11/03 01:46:24;;;;;;;53.90;19.37;;;;;;;;;;1558971;89;21069;-84
2022/11/03 01:48:58;;;;;;;51.18;18.20;;;;;;;;;;1561830;89;21099;-85
2022/11/03 01:51:25;;;;;;;45.23;16.70;;;;;;;;;;1561773;89;21307;-85
2022/11/03 01:53:52;;;;;;;47.73;17.42;;;;;;;;;;1562163;89;21157;-85
2022/11/03 01:56:18;;;;;;;54.98;17.77;;;;;;;;;;1561691;89;21080;-84
2022/11/03 01:58:45;;;;;;;101.33;26.62;;;;;;;;;;1572836;89;21765;-85
2022/11/03 02:01:11;;;;;;;49.33;16.40;;;;;;;;;;1619768;86;21151;-85
2022/11/03 02:03:41;;;;;;;63.65;18.65;;;;;;;;;;1626064;87;20942;-84
2022/11/03 02:06:07;;;;;;;90.95;17.48;;;;;;;;;;1648225;87;21251;-86
2022/11/03 02:08:52;;;;;;;44.27;16.07;;;;;;;;;;1648495;87;21057;-85
2022/11/03 02:14:01;;;;;;;80.38;17.23;;;;;;;;;;1683661;83;21497;-86
2022/11/03 02:16:30;;;;;;;65.30;16.37;;;;;;;;;;1709937;83;21073;-85
2022/11/03 02:18:57;;;;;;;80.30;18.30;;;;;;;;;;1709907;82;21057;-89
2022/11/03 02:21:28;;;;;;;127.05;18.30;;;;;;;;;;1709941;83;21510;-84
2022/11/03 02:24:12;;;;;;;87.60;17.32;;;;;;;;;;1707146;83;21037;-86
2022/11/03 02:26:38;;;;;;;55.60;17.52;;;;;;;;;;1599450;89;21040;-86
2022/11/03 02:29:04;;;;;;;46.88;16.17;;;;;;;;;;1599674;88;21143;-87
2022/11/03 02:31:39;;;;;;;53.48;17.12;;;;;;;;;;1599495;89;22084;-86
2022/11/03 02:34:20;;;;;;;51.95;18.23;;;;;;;;;;1595181;88;21203;-85
2022/11/03 02:37:06;;;;;;;50.20;17.90;;;;;;;;;;1599217;89;21713;-86
2022/11/03 02:39:35;;;;;;;47.30;17.20;;;;;;;;;;1599282;89;21123;-86
2022/11/03 02:42:02;;;;;;;47.05;17.45;;;;;;;;;;1537132;91;21677;-85
2022/11/03 02:44:27;;;;;;;39.85;15.20;;;;;;;;;;1536761;92;21124;-83
2022/11/03 02:46:59;;;;;;;45.05;16.35;;;;;;;;;;1536923;93;20994;-86
2022/11/03 02:49:25;;;;;;;46.40;17.62;;;;;;;;;;1531614;93;21142;-86
2022/11/03 02:52:01;;;;;;;49.48;17.37;;;;;;;;;;1530226;93;21673;-86
2022/11/03 02:54:33;;;;;;;49.27;16.35;;;;;;;;;;1530264;93;21179;-84
2022/11/03 02:57:04;;;;;;;53.98;18.40;;;;;;;;;;1495729;95;21159;-85
2022/11/03 02:59:33;;;;;;;50.75;18.12;;;;;;;;;;1472258;96;21187;-86
2022/11/03 03:02:03;;;;;;;45.33;16.75;;;;;;;;;;1393895;101;21205;-84
2022/11/03 03:04:32;;;;;;;45.75;17.02;;;;;;;;;;1350955;106;21593;-84
2022/11/03 03:07:03;;;;;;;44.42;16.10;;;;;;;;;;1351423;106;21223;-86
2022/11/03 03:09:39;;;;;;;42.88;16.85;;;;;;;;;;1350938;106;21755;-84
2022/11/03 03:12:05;;;;;;;37.90;16.02;;;;;;;;;;1350918;106;21178;-86
2022/11/03 03:14:35;;;;;;;44.88;17.42;;;;;;;;;;1351044;106;21243;-86
2022/11/03 03:17:04;;;;;;;43.20;15.18;;;;;;;;;;1351154;106;21222;-86
2022/11/03 03:19:48;;;;;;;45.30;17.32;;;;;;;;;;1351100;106;21716;-86
2022/11/03 03:22:17;;;;;;;45.90;17.20;;;;;;;;;;1351229;106;21176;-86
2022/11/03 03:25:01;;;;;;;42.85;17.52;;;;;;;;;;1348782;106;21133;-86
2022/11/03 03:27:30;;;;;;;49.30;18.25;;;;;;;;;;1351150;106;21525;-86
2022/11/03 03:29:59;;;;;;;51.13;17.70;;;;;;;;;;1351369;106;21201;-87
2022/11/03 03:32:26;;;;;;;42.05;16.32;;;;;;;;;;1351346;104;21146;-86
2022/11/03 03:34:52;;;;;;;44.45;17.42;;;;;;;;;;1348811;106;21166;-86
2022/11/03 03:37:19;;;;;;;42.75;16.60;;;;;;;;;;1352539;106;21166;-86
2022/11/03 03:39:47;;;;;;;45.48;16.65;;;;;;;;;;1396629;101;21182;-86
2022/11/03 03:42:14;;;;;;;43.30;16.95;;;;;;;;;;1400342;99;21063;-86
2022/11/03 03:44:40;;;;;;;45.90;16.35;;;;;;;;;;1415690;101;21140;-85
2022/11/03 03:47:13;;;;;;;40.35;16.70;;;;;;;;;;1415862;100;21137;-90
2022/11/03 03:49:39;;;;;;;52.05;16.75;;;;;;;;;;1415537;101;21119;-87
2022/11/03 03:52:05;;;;;;;42.55;16.02;;;;;;;;;;1415543;101;21677;-85
2022/11/03 03:54:30;;;;;;;45.98;17.27;;;;;;;;;;1464757;95;21155;-85
2022/11/03 03:57:02;;;;;;;45.33;16.00;;;;;;;;;;1529581;91;21522;-89
2022/11/03 03:59:28;;;;;;;52.45;17.82;;;;;;;;;;1602444;88;22126;-84
2022/11/03 04:01:53;;;;;;;45.73;16.73;;;;;;;;;;1637899;86;20842;-86
2022/11/03 04:04:19;;;;;;;43.65;16.35;;;;;;;;;;1646510;87;20965;-85
2022/11/03 04:06:45;;;;;;;45.80;17.07;;;;;;;;;;1648942;83;20921;-86
2022/11/03 04:09:10;;;;;;;51.40;18.67;;;;;;;;;;1705955;84;22440;-85
2022/11/03 04:22:34;;;;;;;51.75;18.27;;;;;;;;;;1705700;84;21047;-86
2022/11/03 04:25:00;;;;;;;64.22;19.52;;;;;;;;;;1706175;84;21092;-86
2022/11/03 04:27:34;;;;;;;58.30;18.95;;;;;;;;;;1705922;84;20822;-84
2022/11/03 04:30:15;;;;;;;57.27;19.12;;;;;;;;;;1681580;84;21054;-85
2022/11/03 04:32:42;;;;;;;60.10;20.27;;;;;;;;;;1681887;85;21030;-86
2022/11/03 04:35:16;;;;;;;60.55;20.60;;;;;;;;;;1681749;85;21513;-85
2022/11/03 04:37:43;;;;;;;61.77;20.52;;;;;;;;;;1681826;85;20983;-86
2022/11/03 04:40:15;;;;;;;65.72;21.85;;;;;;;;;;1677896;85;21109;-87
2022/11/03 04:42:41;;;;;;;79.42;22.87;;;;;;;;;;1678943;85;21479;-86
2022/11/03 04:45:30;;;;;;;63.00;21.23;;;;;;;;;;1681609;85;21098;-86
2022/11/03 04:47:58;;;;;;;70.20;21.52;;;;;;;;;;1612017;88;21145;-87
2022/11/03 04:50:24;;;;;;;80.92;23.02;;;;;;;;;;1611897;88;21086;-84
2022/11/03 04:52:55;;;;;;;83.30;23.50;;;;;;;;;;1611962;88;21798;-86
2022/11/03 04:55:21;;;;;;;76.05;22.30;;;;;;;;;;1612059;87;21037;-86
2022/11/03 04:57:47;;;;;;;84.35;23.77;;;;;;;;;;1611963;88;21056;-88
2022/11/03 05:00:16;;;;;;;95.38;26.07;;;;;;;;;;1612014;88;21141;-86
2022/11/03 05:02:46;;;;;;;107.55;28.70;;;;;;;;;;1570752;88;21334;-86
2022/11/03 05:05:21;;;;;;;77.32;23.25;;;;;;;;;;1567124;89;21248;-86
2022/11/03 05:07:49;;;;;;;81.00;24.67;;;;;;;;;;1566777;90;21206;-89
2022/11/03 05:10:20;;;;;;;113.17;30.27;;;;;;;;;;1564413;90;21046;-86
2022/11/03 05:12:49;;;;;;;115.00;32.03;;;;;;;;;;1561091;90;21101;-92
2022/11/03 05:15:31;;;;;;;118.15;32.45;;;;;;;;;;1563743;90;22024;-86
2022/11/03 05:17:58;;;;;;;123.92;37.45;;;;;;;;;;1565927;91;20983;-87
2022/11/03 05:20:33;;;;;;;121.92;40.80;;;;;;;;;;1567196;91;21058;-88
2022/11/03 05:22:59;;;;;;;123.92;38.98;;;;;;;;;;1564591;89;21109;-88
2022/11/03 05:25:31;;;;;;;108.30;34.80;;;;;;;;;;1585469;90;21050;-90
2022/11/03 05:27:57;;;;;;;82.37;28.60;;;;;;;;;;1529671;91;21165;-88
2022/11/03 05:30:23;;;;;;;73.30;26.10;;;;;;;;;;1529923;91;20876;-86
2022/11/03 05:32:48;;;;;;;72.95;27.35;;;;;;;;;;1529676;91;21092;-87
2022/11/03 05:35:20;;;;;;;66.53;25.12;;;;;;;;;;1529820;91;21657;-86
2022/11/03 05:37:45;;;;;;;75.42;25.55;;;;;;;;;;1527068;91;21117;-86
2022/11/03 05:40:18;;;;;;;71.72;25.30;;;;;;;;;;1529111;91;21698;-86
2022/11/03 05:42:45;;;;;;;73.12;26.17;;;;;;;;;;1524176;92;21166;-88
2022/11/03 05:45:23;;;;;;;73.45;26.00;;;;;;;;;;1527016;92;21813;-89
2022/11/03 05:47:50;;;;;;;64.05;24.40;;;;;;;;;;1525467;94;21095;-86
2022/11/03 05:50:24;;;;;;;61.37;24.05;;;;;;;;;;1508007;94;21117;-87
2022/11/03 05:52:56;;;;;;;63.08;23.80;;;;;;;;;;1526890;92;21967;-88
2022/11/03 05:55:29;;;;;;;61.87;22.67;;;;;;;;;;1427082;99;21167;-87
2022/11/03 05:57:56;;;;;;;67.05;22.27;;;;;;;;;;1426849;99;21215;-87
2022/11/03 06:00:27;;;;;;;58.20;20.77;;;;;;;;;;1427214;99;21224;-87
2022/11/03 06:02:54;;;;;;;54.35;20.02;;;;;;;;;;1425996;99;21630;-86
2022/11/03 06:05:22;;;;;;;53.00;19.37;;;;;;;;;;1434616;96;21127;-86
2022/11/03 06:07:48;;;;;;;52.50;19.25;;;;;;;;;;1486044;95;21136;-86
2022/11/03 06:10:21;;;;;;;56.95;18.87;;;;;;;;;;1488794;94;21128;-85
2022/11/03 06:12:46;;;;;;;50.77;17.87;;;;;;;;;;1452718;98;21095;-87
2022/11/03 06:15:28;;;;;;;47.62;18.17;;;;;;;;;;1454159;97;21029;-85
2022/11/03 06:17:53;;;;;;;50.55;19.73;;;;;;;;;;1448376;97;21137;-87
2022/11/03 06:20:21;;;;;;;46.50;18.30;;;;;;;;;;1461504;96;21717;-87
2022/11/03 06:22:47;;;;;;;49.67;17.65;;;;;;;;;;1473059;95;21529;-87
2022/11/03 06:25:25;;;;;;;48.45;17.27;;;;;;;;;;1470937;96;21100;-86
2022/11/03 06:27:52;;;;;;;47.17;17.92;;;;;;;;;;1470544;96;21196;-85
2022/11/03 06:30:24;;;;;;;50.98;17.50;;;;;;;;;;1472742;95;21805;-89
2022/11/03 06:32:50;;;;;;;50.40;17.48;;;;;;;;;;1471105;95;21562;-87
2022/11/03 06:35:17;;;;;;;41.85;15.40;;;;;;;;;;1473471;95;20988;-86
2022/11/03 06:37:43;;;;;;;40.50;15.08;;;;;;;;;;1474589;96;21159;-87
2022/11/03 06:40:12;;;;;;;46.53;15.03;;;;;;;;;;1473426;96;21073;-87
2022/11/03 06:42:40;;;;;;;43.50;15.50;;;;;;;;;;1473970;94;21941;-87
2022/11/03 06:45:23;;;;;;;43.80;15.13;;;;;;;;;;1479969;95;21099;-88
2022/11/03 06:47:58;;;;;;;43.38;15.25;;;;;;;;;;1473852;95;21155;-87
2022/11/03 06:50:55;;;;;;;;;;;;;;;;;;;;;
2022/11/03 06:53:25;;;;;;;39.20;13.93;;;;;;;;;;1606299;88;21076;-87
2022/11/03 06:55:56;;;;;;;39.23;14.35;;;;;;;;;;1592130;87;21175;-88
2022/11/03 06:58:41;;;;;;;44.15;15.25;;;;;;;;;;1591472;89;21223;-88
2022/11/03 07:01:26;;;;;;;;;;;;;;;;;;;;;
2022/11/03 07:09:30;;;;;;;;;;;;;;;;;;;;;
2022/11/03 07:15:04;;;;;;;41.45;14.43;;;;;;;;;;1401505;100;21152;-90
2022/11/03 07:23:58;;;;;;;;;;;;;;;;;;;;;
2022/11/03 07:26:36;;;;;;;32.40;13.35;;;;;;;;;;1240800;113;21318;-89
2022/11/03 07:29:07;;;;;;;28.10;12.60;;;;;;;;;;1191138;119;21985;-88
2022/11/03 07:31:35;;;;;;;32.38;13.80;;;;;;;;;;1192268;117;21679;-88
2022/11/03 07:34:33;;;;;;;28.90;12.63;;;;;;;;;;1250354;107;21350;-91
2022/11/03 07:37:00;;;;;;;29.20;11.88;;;;;;;;;;1314552;106;21276;-89
2022/11/03 07:39:29;;;;;;;32.33;13.15;;;;;;;;;;1322323;108;21235;-88
2022/11/03 07:41:55;;;;;;;29.82;12.47;;;;;;;;;;1281024;109;22397;-88
2022/11/03 07:44:21;;;;;;;24.63;11.28;;;;;;;;;;1281507;111;21090;-88
2022/11/03 07:46:48;;;;;;;27.55;11.75;;;;;;;;;;1295592;109;21084;-85
2022/11/03 07:49:24;;;;;;;30.75;12.25;;;;;;;;;;1287696;110;22061;-90
2022/11/03 07:51:51;;;;;;;26.23;11.75;;;;;;;;;;1309125;107;21287;-89
2022/11/03 07:54:24;;;;;;;29.07;12.45;;;;;;;;;;1353000;105;21147;-87
2022/11/03 07:57:02;;;;;;;25.00;11.25;;;;;;;;;;1373421;100;21652;-88
2022/11/03 07:59:31;;;;;;;30.43;12.47;;;;;;;;;;1375587;99;21211;-91
2022/11/03 08:01:58;;;;;;;26.50;11.78;;;;;;;;;;1370629;101;21357;-89
2022/11/03 08:04:32;;;;;;;30.17;11.80;;;;;;;;;;1393715;100;21661;-90
2022/11/03 08:06:57;;;;;;;31.82;12.18;;;;;;;;;;1462697;96;21696;-91
2022/11/03 08:09:23;;;;;;;29.50;11.70;;;;;;;;;;1469597;96;20975;-90
2022/11/03 08:11:50;;;;;;;27.15;11.33;;;;;;;;;;1480792;91;21203;-90
2022/11/03 08:14:16;;;;;;;25.35;10.95;;;;;;;;;;1570388;90;21383;-92
2022/11/03 08:16:42;;;;;;;25.20;11.55;;;;;;;;;;1536829;93;21745;-90
2022/11/03 08:19:08;;;;;;;27.22;11.50;;;;;;;;;;1559906;91;21732;-91
2022/11/03 08:21:34;;;;;;;35.20;12.40;;;;;;;;;;1556715;89;20909;-88
2022/11/03 08:24:00;;;;;;;28.77;11.65;;;;;;;;;;1530611;91;21137;-90
2022/11/03 08:26:26;;;;;;;32.93;12.03;;;;;;;;;;1647501;85;21435;-90
2022/11/03 08:28:52;;;;;;;35.48;12.60;;;;;;;;;;1678806;84;20979;-90
2022/11/03 08:31:17;;;;;;;30.43;12.05;;;;;;;;;;1681401;83;20918;-90
2022/11/03 08:33:43;;;;;;;31.15;12.37;;;;;;;;;;1656701;85;20980;-84
2022/11/03 08:36:09;;;;;;;33.65;12.07;;;;;;;;;;1678632;85;20860;-90
2022/11/03 08:38:35;;;;;;;29.85;12.63;;;;;;;;;;1678868;85;21659;-90
2022/11/03 08:41:01;;;;;;;30.55;12.43;;;;;;;;;;1678808;85;20955;-92
2022/11/03 08:43:30;;;;;;;30.02;12.05;;;;;;;;;;1678709;85;20916;-90
2022/11/03 08:45:55;;;;;;;28.98;11.95;;;;;;;;;;1678550;85;20975;-90
2022/11/03 08:48:23;;;;;;;34.80;12.93;;;;;;;;;;1697964;84;20980;-90
2022/11/03 08:50:53;;;;;;;30.60;11.97;;;;;;;;;;1687940;84;21074;-93
2022/11/03 08:53:19;;;;;;;28.80;11.55;;;;;;;;;;1675108;85;21124;-93
2022/11/03 08:55:45;;;;;;;40.58;11.90;;;;;;;;;;1669806;85;21071;-92
2022/11/03 08:58:11;;;;;;;30.30;11.33;;;;;;;;;;1669918;85;20908;-91
2022/11/03 09:00:37;;;;;;;24.75;10.75;;;;;;;;;;1678750;84;21045;-91
2022/11/03 09:03:03;;;;;;;29.63;10.90;;;;;;;;;;1656961;85;21072;-92
2022/11/03 09:05:34;;;;;;;26.82;11.45;;;;;;;;;;1706038;83;21721;-94
2022/11/03 09:08:00;;;;;;;33.10;11.83;;;;;;;;;;1705660;83;21076;-88
2022/11/03 09:10:26;;;;;;;31.55;12.28;;;;;;;;;;1705769;83;20892;-91
2022/11/03 09:12:52;;;;;;;27.80;11.60;;;;;;;;;;1705863;84;21599;-93
2022/11/03 09:15:18;;;;;;;31.93;11.95;;;;;;;;;;1705971;83;21087;-90
2022/11/03 09:17:44;;;;;;;30.27;12.58;;;;;;;;;;1705738;84;20998;-95
2022/11/03 09:20:11;;;;;;;31.45;13.10;;;;;;;;;;1711389;82;21693;-92
2022/11/03 09:22:37;;;;;;;26.93;11.53;;;;;;;;;;1716846;82;21007;-93
2022/11/03 09:25:03;;;;;;;34.58;12.25;;;;;;;;;;1735426;82;20996;-94
2022/11/03 09:27:30;;;;;;;35.10;12.20;;;;;;;;;;1722303;82;21284;-95
2022/11/03 09:29:55;;;;;;;27.75;11.48;;;;;;;;;;1735275;82;21046;-93
2022/11/03 09:32:21;;;;;;;30.37;10.75;;;;;;;;;;1732947;82;20888;-92
2022/11/03 09:34:47;;;;;;;28.77;10.60;;;;;;;;;;1735839;82;20880;-94
2022/11/03 09:37:13;;;;;;;31.57;10.88;;;;;;;;;;1735284;82;20959;-95
2022/11/03 09:39:39;;;;;;;23.95;10.82;;;;;;;;;;1716288;82;21309;-96
2022/11/03 09:44:34;;;;;;;28.15;11.00;;;;;;;;;;1707242;81;20948;-91
2022/11/03 09:47:00;;;;;;;30.17;12.07;;;;;;;;;;1711878;82;21031;-95
2022/11/03 09:49:27;;;;;;;30.82;11.25;;;;;;;;;;1712593;83;21035;-93
2022/11/03 09:51:54;;;;;;;31.23;11.30;;;;;;;;;;1692070;82;21291;-88
2022/11/03 09:54:20;;;;;;;27.55;10.90;;;;;;;;;;1706633;82;21495;-90
2022/11/03 09:56:46;;;;;;;27.05;10.13;;;;;;;;;;1699108;83;21732;-89
2022/11/03 09:59:17;;;;;;;26.87;11.22;;;;;;;;;;1688443;83;21074;-89
2022/11/03 10:01:45;;;;;;;27.70;10.65;;;;;;;;;;1648426;87;21024;-91
2022/11/03 10:04:12;;;;;;;25.45;9.88;;;;;;;;;;1673535;83;21045;-90
2022/11/03 10:06:38;;;;;;;28.35;9.55;;;;;;;;;;1712018;83;21066;-92
2022/11/03 10:09:07;;;;;;;25.30;9.58;;;;;;;;;;1690599;83;21537;-92
2022/11/03 10:11:34;;;;;;;29.90;10.35;;;;;;;;;;1675215;84;21647;-90
2022/11/03 10:14:00;;;;;;;22.90;9.63;;;;;;;;;;1674832;84;21062;-93
2022/11/03 10:16:26;;;;;;;23.38;9.05;;;;;;;;;;1680529;83;21079;-90
2022/11/03 10:18:55;;;;;;;27.27;9.15;;;;;;;;;;1672482;83;21063;-91
2022/11/03 10:21:29;;;;;;;26.82;10.08;;;;;;;;;;1653031;84;21157;-91
2022/11/03 10:23:55;;;;;;;27.00;9.93;;;;;;;;;;1672974;83;21141;-89
2022/11/03 10:26:21;;;;;;;23.67;9.30;;;;;;;;;;1678063;83;20900;-90
2022/11/03 10:29:04;;;;;;;25.35;9.30;;;;;;;;;;1686530;83;21306;-87
2022/11/03 10:31:32;;;;;;;;;;;;;;;;;;1713000;83;21559;-90
2022/11/03 10:33:58;;;;;;;21.62;8.93;;;;;;;;;;1638678;87;20221;-91
2022/11/03 10:36:27;;;;;;;26.85;8.88;;;;;;;;;;1622475;87;21188;-89
2022/11/03 10:38:53;;;;;;;30.35;9.30;;;;;;;;;;1637372;87;21121;-92
2022/11/03 10:41:25;;;;;;;25.35;9.18;;;;;;;;;;1639152;85;21132;-91
2022/11/03 10:44:13;;;;;;;25.62;8.95;;;;;;;;;;1579156;89;21055;-94
2022/11/03 10:46:41;;;;;;;26.73;9.45;;;;;;;;;;1568930;89;21717;-95
2022/11/03 10:49:17;;;;;;;23.38;9.53;;;;;;;;;;1533545;91;21714;-95
2022/11/03 10:51:46;;;;;;;25.23;8.55;;;;;;;;;;1553340;90;21106;-96
2022/11/03 10:54:15;;;;;;;31.60;10.18;;;;;;;;;;1553108;91;21152;-94
2022/11/03 10:56:42;;;;;;;31.48;10.18;;;;;;;;;;1547123;91;21611;-96
2022/11/03 10:59:17;;;;;;;28.07;10.40;;;;;;;;;;1553717;92;21130;-95
2022/11/03 11:01:43;;;;;;;27.60;10.58;;;;;;;;;;1553635;91;21133;-96
2022/11/03 11:04:14;;;;;;;29.32;10.60;;;;;;;;;;1550002;89;20979;-96
2022/11/03 11:06:41;;;;;;;28.23;10.23;;;;;;;;;;1549000;91;21310;-96
2022/11/03 11:09:10;;;;;;;28.42;10.88;;;;;;;;;;1549041;92;21170;-96
2022/11/03 11:11:36;;;;;;;27.65;10.93;;;;;;;;;;1550684;91;21141;-95
2022/11/03 11:16:56;;;;;;;25.72;9.88;;;;;;;;;;1530887;92;21115;-96
2022/11/03 11:19:24;;;;;;;30.30;10.40;;;;;;;;;;1533894;91;21166;-96
2022/11/03 11:21:57;;;;;;;27.42;9.75;;;;;;;;;;1557537;91;21040;-93
2022/11/03 11:24:43;;;;;;;31.70;9.98;;;;;;;;;;1552885;91;21154;-94
2022/11/03 11:27:32;;;;;;;24.72;9.05;;;;;;;;;;1536319;92;21173;-93
2022/11/03 11:30:07;;;;;;;25.45;8.95;;;;;;;;;;1537768;91;21176;-95
2022/11/03 11:32:42;;;;;;;25.55;9.03;;;;;;;;;;1503087;95;21147;-94
2022/11/03 11:35:17;;;;;;;28.20;8.38;;;;;;;;;;1511707;93;21673;-86
2022/11/03 11:37:43;;;;;;;20.23;8.20;;;;;;;;;;1517482;93;21098;-94
2022/11/03 11:40:14;;;;;;;27.80;9.78;;;;;;;;;;1534453;90;21126;-94
2022/11/03 11:43:03;;;;;;;20.88;8.43;;;;;;;;;;1499721;95;21174;-94
2022/11/03 11:46:06;;;;;;;21.73;8.00;;;;;;;;;;1499901;94;21222;-88
2022/11/03 11:48:33;;;;;;;21.60;8.30;;;;;;;;;;1502747;95;21034;-90
2022/11/03 11:51:00;;;;;;;19.02;7.45;;;;;;;;;;1503010;94;21117;-87
2022/11/03 11:53:26;;;;;;;19.92;7.10;;;;;;;;;;1502717;95;21148;-90
2022/11/03 11:55:55;;;;;;;19.15;6.83;;;;;;;;;;1503124;94;21125;-90
2022/11/03 11:58:46;;;;;;;15.32;5.87;;;;;;;;;;1501112;94;21181;-92
2022/11/03 12:01:32;;;;;;;15.25;6.35;;;;;;;;;;1499277;94;21134;-91
2022/11/03 12:04:29;;;;;;;19.82;6.22;;;;;;;;;;1497914;95;21550;-90
2022/11/03 12:06:56;;;;;;;24.10;6.47;;;;;;;;;;1495081;94;21686;-93
2022/11/03 12:09:26;;;;;;;15.95;5.70;;;;;;;;;;1501306;94;21089;-94
2022/11/03 12:11:55;;;;;;;14.50;5.95;;;;;;;;;;1493877;96;22087;-93
2022/11/03 12:14:26;;;;;;;16.32;6.20;;;;;;;;;;1534959;90;21680;-92
2022/11/03 12:16:53;;;;;;;18.27;6.50;;;;;;;;;;1555769;89;21095;-94
2022/11/03 12:19:36;;;;;;;23.75;6.78;;;;;;;;;;1557641;90;21620;-92
2022/11/03 12:22:05;;;;;;;14.87;6.30;;;;;;;;;;1561718;90;21203;-94
2022/11/03 12:24:35;;;;;;;21.20;6.72;;;;;;;;;;1558357;90;21336;-94
2022/11/03 12:27:05;;;;;;;19.37;7.22;;;;;;;;;;1551966;90;21163;-94
2022/11/03 12:29:31;;;;;;;34.60;6.75;;;;;;;;;;1612516;86;21102;-96
2022/11/03 12:31:57;;;;;;;14.38;6.58;;;;;;;;;;1625464;86;21119;-93
2022/11/03 12:34:23;;;;;;;18.87;6.95;;;;;;;;;;1620689;86;21161;-93
2022/11/03 12:36:49;;;;;;;21.48;6.90;;;;;;;;;;1622552;88;21190;-96
2022/11/03 12:39:15;;;;;;;19.77;6.30;;;;;;;;;;1658769;81;21061;-94
2022/11/03 12:41:41;;;;;;;20.37;7.62;;;;;;;;;;1702139;83;20906;-93
2022/11/03 12:44:08;;;;;;;19.02;6.92;;;;;;;;;;1726899;82;20874;-92
2022/11/03 12:46:34;;;;;;;25.82;7.65;;;;;;;;;;1731131;82;21069;-92
2022/11/03 12:49:00;;;;;;;18.48;7.85;;;;;;;;;;1731648;82;21175;-90
2022/11/03 12:51:26;;;;;;;35.63;13.25;;;;;;;;;;1724451;81;20902;-94
2022/11/03 12:53:51;;;;;;;39.80;14.20;;;;;;;;;;1729913;82;20998;-93
2022/11/03 12:56:18;;;;;;;43.52;15.03;;;;;;;;;;1730194;82;20984;-93
2022/11/03 12:58:44;;;;;;;39.75;12.20;;;;;;;;;;1731236;82;21078;-94
2022/11/03 13:01:09;;;;;;;36.70;11.22;;;;;;;;;;1733314;81;21529;-95
2022/11/03 13:03:35;;;;;;;25.65;10.05;;;;;;;;;;1696533;82;20968;-93
2022/11/03 13:06:03;;;;;;;26.85;9.75;;;;;;;;;;1711732;82;21649;-93
2022/11/03 13:11:03;;;;;;;26.62;10.75;;;;;;;;;;1673170;84;27047;-93
2022/11/03 13:13:30;;;;;;;31.25;10.65;;;;;;;;;;1672091;84;21094;-93
2022/11/03 13:15:57;;;;;;;32.00;8.73;;;;;;;;;;1670190;85;21056;-93
2022/11/03 13:18:23;;;;;;;26.97;8.73;;;;;;;;;;1668905;86;21001;-91
2022/11/03 13:20:49;;;;;;;24.57;8.60;;;;;;;;;;1669056;86;20984;-94
2022/11/03 13:23:14;;;;;;;26.60;9.50;;;;;;;;;;1674310;83;20898;-94
2022/11/03 13:25:40;;;;;;;25.32;8.45;;;;;;;;;;1671614;84;21876;-96
2022/11/03 13:28:06;;;;;;;27.10;9.18;;;;;;;;;;1657779;84;20901;-95
2022/11/03 13:30:32;;;;;;;23.67;8.78;;;;;;;;;;1649262;84;20983;-96
2022/11/03 13:33:00;;;;;;;25.05;8.43;;;;;;;;;;1666018;84;21102;-96
2022/11/03 13:35:26;;;;;;;24.57;10.00;;;;;;;;;;1676510;84;21109;-96
2022/11/03 13:37:52;;;;;;;28.60;9.30;;;;;;;;;;1674853;84;21447;-95
2022/11/03 13:40:19;;;;;;;23.18;9.68;;;;;;;;;;1675745;84;20894;-95
2022/11/03 13:42:45;;;;;;;31.20;10.45;;;;;;;;;;1675096;84;21590;-96
2022/11/03 13:45:13;;;;;;;31.05;9.90;;;;;;;;;;1680149;84;20905;-95
2022/11/03 13:47:39;;;;;;;29.35;10.20;;;;;;;;;;1680627;81;21098;-96
2022/11/03 13:50:06;;;;;;;27.82;9.95;;;;;;;;;;1725345;81;21875;-96
2022/11/03 13:52:32;;;;;;;30.82;10.82;;;;;;;;;;1733851;80;21046;-93
2022/11/03 13:54:58;;;;;;;35.65;10.30;;;;;;;;;;1734782;81;20844;-96
2022/11/03 13:57:26;;;;;;;31.68;10.03;;;;;;;;;;1742412;80;21074;-95
2022/11/03 13:59:52;;;;;;;29.72;10.28;;;;;;;;;;1745151;80;21076;-93
2022/11/03 14:02:17;;;;;;;29.52;10.13;;;;;;;;;;1736002;80;21813;-94
2022/11/03 14:04:43;;;;;;;28.02;10.35;;;;;;;;;;1747078;81;20809;-94
2022/11/03 14:07:09;;;;;;;32.45;10.75;;;;;;;;;;1738790;81;20994;-95
2022/11/03 14:09:34;;;;;;;30.50;9.95;;;;;;;;;;1736624;81;21415;-95
2022/11/03 14:14:45;;;;;;;24.52;9.80;;;;;;;;;;1732631;81;21051;-96
2022/11/03 14:17:11;;;;;;;31.70;11.33;;;;;;;;;;1729781;81;20970;-96
2022/11/03 14:19:37;;;;;;;31.80;10.50;;;;;;;;;;1750182;81;21007;-96
2022/11/03 14:22:02;;;;;;;30.12;10.50;;;;;;;;;;1728518;81;20884;-95
2022/11/03 14:24:28;;;;;;;33.18;10.28;;;;;;;;;;1695825;82;20884;-95
2022/11/03 14:26:54;;;;;;;30.88;10.60;;;;;;;;;;1741732;81;21175;-94
2022/11/03 14:29:22;;;;;;;27.73;10.60;;;;;;;;;;1738432;82;20947;-95
2022/11/03 14:31:47;;;;;;;27.73;10.05;;;;;;;;;;1719883;82;21041;-95
2022/11/03 14:34:13;;;;;;;34.83;10.88;;;;;;;;;;1734451;82;20908;-96
2022/11/03 14:36:39;;;;;;;28.75;10.35;;;;;;;;;;1721944;82;21416;-94
2022/11/03 14:39:04;;;;;;;32.23;11.57;;;;;;;;;;1736669;82;21037;-96
2022/11/03 14:44:14;;;;;;;40.92;12.13;;;;;;;;;;1727259;81;21070;-92
2022/11/03 14:46:40;;;;;;;61.28;22.17;;;;;;;;;;1735924;82;20970;-95
2022/11/03 14:49:07;;;;;;;67.00;23.42;;;;;;;;;;1731984;82;21121;-96
2022/11/03 14:51:34;;;;;;;69.82;22.58;;;;;;;;;;1717767;82;21133;-95
2022/11/03 14:54:00;;;;;;;71.92;25.30;;;;;;;;;;1706331;82;20988;-95
2022/11/03 14:56:25;;;;;;;79.22;28.57;;;;;;;;;;1708097;82;21594;-94
2022/11/03 14:58:51;;;;;;;88.67;28.85;;;;;;;;;;1707674;82;20943;-95
2022/11/03 15:01:18;;;;;;;81.80;26.50;;;;;;;;;;1723501;82;21661;-94
2022/11/03 15:03:45;;;;;;;78.67;25.25;;;;;;;;;;1718413;81;21511;-92
2022/11/03 15:06:11;;;;;;;83.70;27.82;;;;;;;;;;1727017;80;20964;-95
2022/11/03 15:08:37;;;;;;;91.22;30.37;;;;;;;;;;1732754;81;21017;-94
2022/11/03 15:11:06;;;;;;;85.25;27.80;;;;;;;;;;1733261;82;20886;-92
2022/11/03 15:13:32;;;;;;;53.40;19.00;;;;;;;;;;1732946;82;21052;-93
2022/11/03 15:15:57;;;;;;;51.23;17.07;;;;;;;;;;1733601;82;21087;-94
2022/11/03 15:18:23;;;;;;;49.10;15.93;;;;;;;;;;1760140;81;21585;-94
2022/11/03 15:20:49;;;;;;;56.50;18.50;;;;;;;;;;1762986;81;20866;-94